Nowlin, South Dakota
Current Conditions -  °F | °C
As of 8:55 AM on Sunday 25 Jan 2015 (Local Time) from KPHP Reporting Station
Clear Clear  
Wind Chill: 29°   Ceiling: Unl
Heat Index: 38°   Visibility: 10mi
Dew Point: 27°   Wind: 16mph
Humidity: 65%   Direction: 330°NNW
Pressure: 30.07"   Gusts: NA
Location:  44.3169°N, 101.368°W
Report Text: KPHP 251555Z AUTO 33014KT 10SM CLR 03/M03 A3007 RMK AO2 SLP192 T00331028
Loading
Personal Weather Stations






























Interactive Weather Map New forecast layout! Learn more

10-Day Weather Forecast

Advertisements
Track Severe Weather on mobile